createdAt,value
2023-03-01T00:01:06.276Z,19.38
2023-03-01T00:06:35.493Z,17.90
2023-03-01T00:11:59.113Z,17.13
2023-03-01T00:17:29.744Z,16.02
2023-03-01T00:22:56.084Z,15.40
2023-03-01T00:28:26.156Z,16.17
2023-03-01T00:33:58.014Z,13.77
2023-03-01T00:39:26.814Z,13.18
2023-03-01T00:44:56.146Z,13.15
2023-03-01T00:50:20.148Z,12.57
2023-03-01T00:55:46.228Z,13.93
2023-03-01T01:01:18.599Z,11.80
2023-03-01T01:06:47.869Z,11.75
2023-03-01T01:12:10.841Z,12.73
2023-03-01T01:17:35.923Z,14.20
2023-03-01T01:23:04.829Z,13.57
2023-03-01T01:28:33.264Z,13.75
2023-03-01T01:34:01.041Z,14.98
2023-03-01T01:39:25.541Z,15.95
2023-03-01T01:44:48.566Z,15.73
2023-03-01T01:50:20.554Z,14.70
2023-03-01T01:55:51.531Z,14.40
2023-03-01T02:01:20.155Z,13.23
2023-03-01T02:06:53.654Z,13.10
2023-03-01T02:12:23.530Z,14.00
2023-03-01T02:17:52.655Z,12.75
2023-03-01T02:23:22.326Z,12.13
2023-03-01T02:28:47.860Z,12.05
2023-03-01T02:34:17.332Z,12.15
2023-03-01T02:39:49.803Z,12.38
2023-03-01T02:45:19.300Z,12.52
2023-03-01T02:50:53.764Z,11.50
2023-03-01T02:56:19.335Z,10.50
2023-03-01T03:01:49.381Z,10.73
2023-03-01T03:07:13.402Z,11.52
2023-03-01T03:12:36.955Z,14.55
2023-03-01T03:18:02.618Z,13.40
2023-03-01T03:23:31.123Z,12.52
2023-03-01T03:28:54.928Z,14.63
2023-03-01T03:34:23.339Z,16.83
2023-03-01T03:39:46.956Z,16.52
2023-03-01T03:45:10.916Z,14.70
2023-03-01T03:50:40.606Z,17.05
2023-03-01T03:56:09.900Z,14.07
2023-03-01T04:01:38.166Z,13.63
2023-03-01T04:07:06.804Z,12.35
2023-03-01T04:12:28.729Z,14.02
2023-03-01T04:17:55.887Z,14.27
2023-03-01T04:23:22.368Z,11.68
2023-03-01T04:28:51.744Z,11.38
2023-03-01T04:34:15.191Z,11.95
2023-03-01T04:45:14.204Z,9.05
2023-03-01T04:50:39.710Z,10.05
2023-03-01T04:56:03.006Z,9.15
2023-03-01T05:01:27.346Z,10.55
2023-03-01T05:06:50.854Z,12.98
2023-03-01T05:12:13.832Z,13.18
2023-03-01T05:17:38.091Z,11.82
2023-03-01T05:23:06.349Z,11.73
2023-03-01T05:28:30.698Z,11.85
2023-03-01T05:33:55.571Z,11.07
2023-03-01T05:39:18.808Z,12.75
2023-03-01T05:44:41.518Z,12.43
2023-03-01T05:50:06.086Z,12.30
2023-03-01T05:55:29.491Z,14.30
2023-03-01T06:00:54.221Z,13.18
2023-03-01T06:06:20.273Z,12.55
2023-03-01T06:11:44.137Z,16.58
2023-03-01T06:17:06.887Z,17.73
2023-03-01T06:22:32.262Z,14.68
2023-03-01T06:27:55.594Z,11.60
2023-03-01T06:33:20.956Z,11.35
2023-03-01T06:38:45.487Z,11.20
2023-03-01T06:44:08.459Z,12.38
2023-03-01T06:49:31.444Z,13.68
2023-03-01T06:54:55.441Z,11.48
2023-03-01T07:00:19.162Z,14.43
2023-03-01T07:05:41.847Z,13.98
2023-03-01T07:11:06.799Z,13.95
2023-03-01T07:16:29.981Z,15.10
2023-03-01T07:21:53.272Z,16.17
2023-03-01T07:27:17.938Z,17.60
2023-03-01T07:32:41.785Z,15.73
2023-03-01T07:38:04.708Z,14.70
2023-03-01T07:43:28.616Z,14.18
2023-03-01T07:48:51.870Z,14.02
2023-03-01T07:54:14.829Z,14.63
2023-03-01T07:59:38.888Z,16.40
2023-03-01T08:05:02.271Z,13.00
2023-03-01T08:10:24.932Z,14.18
2023-03-01T08:15:49.272Z,11.15
2023-03-01T08:21:12.624Z,11.15
2023-03-01T08:26:36.011Z,15.43
2023-03-01T08:32:00.442Z,9.25
2023-03-01T08:37:23.625Z,12.68
2023-03-01T08:42:46.730Z,9.43
2023-03-01T08:48:11.195Z,12.55
2023-03-01T08:53:40.159Z,11.40
2023-03-01T08:59:03.330Z,12.25
2023-03-01T09:04:34.515Z,13.40
2023-03-01T09:09:57.594Z,12.57
2023-03-01T09:15:23.146Z,18.30
2023-03-01T09:20:48.024Z,10.05
2023-03-01T09:26:12.833Z,11.55
2023-03-01T09:37:05.450Z,8.57
2023-03-01T09:42:32.145Z,8.05
2023-03-01T09:47:56.640Z,19.55
2023-03-01T09:53:22.513Z,9.52
2023-03-01T09:58:52.955Z,10.85
2023-03-01T10:04:28.284Z,11.88
2023-03-01T10:09:53.043Z,9.57
2023-03-01T10:15:17.862Z,9.70
2023-03-01T10:20:47.535Z,11.75
2023-03-01T10:26:22.025Z,9.18
2023-03-01T10:31:50.591Z,8.05
2023-03-01T10:37:14.807Z,10.07
2023-03-01T10:42:40.719Z,8.43
2023-03-01T10:48:08.450Z,9.13
2023-03-01T10:53:34.328Z,7.65
2023-03-01T10:59:03.334Z,8.90
2023-03-01T11:04:25.864Z,7.65
2023-03-01T11:09:47.734Z,9.43
2023-03-01T11:15:22.392Z,7.38
2023-03-01T11:20:51.386Z,8.45
2023-03-01T11:26:19.637Z,7.13
2023-03-01T11:37:30.953Z,6.60
2023-03-01T11:43:01.916Z,7.70
2023-03-01T11:48:48.999Z,8.18
2023-03-01T11:54:29.917Z,8.68
2023-03-01T12:00:05.045Z,8.68
2023-03-01T12:05:50.565Z,6.90
2023-03-01T12:16:48.717Z,11.50
2023-03-01T12:22:15.735Z,9.43
2023-03-01T12:27:49.359Z,10.00
2023-03-01T12:33:22.101Z,10.68
2023-03-01T12:38:51.599Z,10.63
2023-03-01T12:44:26.257Z,10.60
2023-03-01T12:50:00.259Z,13.43
2023-03-01T12:55:28.311Z,13.30
2023-03-01T13:01:05.156Z,10.10
2023-03-01T13:06:43.772Z,9.57
2023-03-01T13:12:30.794Z,10.98
2023-03-01T13:17:59.773Z,12.10
2023-03-01T13:23:30.673Z,14.63
2023-03-01T13:29:01.288Z,12.43
2023-03-01T13:34:43.275Z,13.25
2023-03-01T13:40:27.396Z,13.70
2023-03-01T13:45:54.368Z,13.98
2023-03-01T13:51:25.744Z,14.27
2023-03-01T13:56:54.977Z,15.00
2023-03-01T14:02:21.809Z,14.10
2023-03-01T14:07:45.175Z,12.27
2023-03-01T14:13:25.625Z,12.23
2023-03-01T14:19:01.097Z,11.13
2023-03-01T14:24:30.354Z,9.05
2023-03-01T14:30:00.160Z,9.07
2023-03-01T14:35:28.508Z,8.75
2023-03-01T14:40:59.382Z,8.60
2023-03-01T14:46:26.385Z,9.10
2023-03-01T14:51:59.379Z,10.32
2023-03-01T14:57:29.037Z,11.90
2023-03-01T15:02:58.245Z,10.13
2023-03-01T15:08:27.366Z,14.52
2023-03-01T15:13:49.885Z,15.50
2023-03-01T15:19:18.256Z,13.82
2023-03-01T15:24:42.904Z,12.25
2023-03-01T15:30:07.241Z,14.02
2023-03-01T15:35:42.751Z,12.18
2023-03-01T15:41:25.839Z,12.65
2023-03-01T15:46:54.223Z,14.55
2023-03-01T15:52:29.807Z,13.38
2023-03-01T15:58:01.496Z,9.77
2023-03-01T16:03:25.533Z,10.38
2023-03-01T16:08:54.060Z,10.80
2023-03-01T16:14:19.475Z,13.57
2023-03-01T16:19:42.416Z,11.70
2023-03-01T16:25:11.355Z,11.68
2023-03-01T16:30:41.574Z,10.50
2023-03-01T16:36:09.348Z,12.77
2023-03-01T16:41:38.156Z,13.50
2023-03-01T16:47:08.996Z,12.02
2023-03-01T16:52:32.572Z,11.65
2023-03-01T16:57:56.397Z,11.15
2023-03-01T17:03:24.345Z,10.60
2023-03-01T17:08:53.187Z,10.20
2023-03-01T17:14:21.079Z,12.30
2023-03-01T17:19:45.700Z,12.98
2023-03-01T17:25:14.508Z,12.63
2023-03-01T17:30:43.736Z,13.70
2023-03-01T17:36:12.118Z,14.40
2023-03-01T17:41:35.345Z,17.40
2023-03-01T17:47:04.481Z,11.87
2023-03-01T17:52:29.152Z,12.25
2023-03-01T17:57:58.326Z,11.57
2023-03-01T18:03:22.774Z,15.63
2023-03-01T18:08:53.509Z,16.08
2023-03-01T18:14:22.251Z,12.73
2023-03-01T18:19:51.339Z,13.32
2023-03-01T18:25:15.893Z,12.98
2023-03-01T18:30:38.852Z,12.63
2023-03-01T18:36:07.824Z,10.50
2023-03-01T18:41:34.030Z,11.48
2023-03-01T18:46:58.369Z,10.80
2023-03-01T18:52:27.102Z,12.02
2023-03-01T18:57:52.115Z,13.85
2023-03-01T19:03:21.557Z,12.55
2023-03-01T19:08:46.158Z,12.60
2023-03-01T19:14:13.059Z,16.20
2023-03-01T19:19:36.825Z,17.27
2023-03-01T19:25:05.280Z,15.95
2023-03-01T19:30:35.766Z,13.07
2023-03-01T19:36:04.773Z,12.38
2023-03-01T19:41:28.645Z,11.13
2023-03-01T19:52:23.750Z,12.25
2023-03-01T19:57:51.638Z,12.75
2023-03-01T20:03:14.687Z,11.80
2023-03-01T20:08:38.990Z,13.05
2023-03-01T20:14:10.693Z,11.45
2023-03-01T20:19:39.148Z,12.27
2023-03-01T20:25:11.080Z,15.60
2023-03-01T20:30:34.150Z,18.20
2023-03-01T20:35:58.082Z,21.52
2023-03-01T20:41:28.739Z,19.00
2023-03-01T20:46:52.229Z,12.52
2023-03-01T20:52:15.208Z,11.32
2023-03-01T20:57:40.609Z,15.82
2023-03-01T21:03:04.029Z,15.65
2023-03-01T21:08:27.549Z,14.43
2023-03-01T21:13:52.149Z,14.82
2023-03-01T21:19:15.587Z,17.00
2023-03-01T21:24:41.735Z,17.35
2023-03-01T21:30:10.910Z,25.35
2023-03-01T21:35:33.838Z,19.15
2023-03-01T21:40:57.024Z,16.83
2023-03-01T21:46:22.261Z,11.27
2023-03-01T21:51:45.454Z,13.57
2023-03-01T21:57:08.455Z,13.95
2023-03-01T22:02:33.002Z,12.68
2023-03-01T22:07:56.328Z,11.73
2023-03-01T22:13:19.691Z,10.88
2023-03-01T22:18:43.952Z,10.10
2023-03-01T22:24:07.490Z,10.40
2023-03-01T22:29:30.619Z,9.70
2023-03-01T22:34:55.179Z,10.68
2023-03-01T22:40:18.496Z,10.20
2023-03-01T22:45:41.793Z,10.13
2023-03-01T22:51:06.263Z,10.10
2023-03-01T22:56:30.794Z,10.23
2023-03-01T23:01:55.071Z,10.07
2023-03-01T23:07:19.613Z,9.95
2023-03-01T23:12:43.124Z,9.85
2023-03-01T23:18:06.751Z,10.10
2023-03-01T23:23:31.437Z,10.30
2023-03-01T23:28:54.477Z,9.85
2023-03-01T23:34:17.504Z,9.73
2023-03-01T23:39:42.275Z,10.32
2023-03-01T23:45:11.739Z,9.52
2023-03-01T23:50:41.692Z,10.70
2023-03-01T23:56:05.927Z,11.05
